Time;durP1;ratioP1;P1;durP2;ratioP2;P2;SDS_P1;SDS_P2;PMS_P1;PMS_P2;Temp;Humidity;BMP_temperature;BMP_pressure;BME280_temperature;BME280_humidity;BME280_pressure;Samples;Min_cycle;Max_cycle;Signal;HPM_P1;HPM_P2
2022/10/28 00:02:21;;;;;;;11.50;7.00;;;16.70;99.90;;;;;;5013361;28;20026;-64
2022/10/28 00:04:47;;;;;;;10.85;6.32;;;16.70;99.90;;;;;;5012956;28;20029;-64
2022/10/28 00:07:12;;;;;;;12.52;6.70;;;16.70;99.90;;;;;;5024588;28;20034;-64
2022/10/28 00:09:37;;;;;;;10.73;6.63;;;16.70;99.90;;;;;;5010037;28;20053;-64
2022/10/28 00:12:03;;;;;;;11.43;6.55;;;16.70;99.90;;;;;;5012667;28;20098;-64
2022/10/28 00:14:29;;;;;;;12.48;6.78;;;16.70;99.90;;;;;;5029020;28;20560;-64
2022/10/28 00:16:54;;;;;;;14.38;6.47;;;16.60;99.90;;;;;;5015210;28;20029;-66
2022/10/28 00:19:20;;;;;;;11.35;7.00;;;16.60;99.90;;;;;;5010408;28;20102;-65
2022/10/28 00:21:45;;;;;;;11.68;6.55;;;16.50;99.90;;;;;;5011314;28;20564;-64
2022/10/28 00:24:14;;;;;;;11.63;6.47;;;16.60;99.90;;;;;;5012185;28;20075;-64
2022/10/28 00:26:41;;;;;;;10.15;5.30;;;16.60;99.90;;;;;;5013311;28;20026;-64
2022/10/28 00:29:09;;;;;;;7.20;4.63;;;16.60;99.90;;;;;;5018986;28;20059;-64
2022/10/28 00:31:36;;;;;;;12.20;6.13;;;16.60;99.90;;;;;;5021600;28;20043;-64
2022/10/28 00:34:04;;;;;;;9.60;6.03;;;16.60;99.90;;;;;;5020275;28;20071;-64
2022/10/28 00:36:32;;;;;;;12.75;6.57;;;16.60;99.90;;;;;;5015316;28;20021;-64
2022/10/28 00:38:59;;;;;;;10.10;6.40;;;16.60;99.90;;;;;;5017305;28;20029;-64
2022/10/28 00:41:31;;;;;;;11.35;6.47;;;16.60;99.90;;;;;;5019615;28;20065;-65
2022/10/28 00:44:00;;;;;;;9.25;6.60;;;16.60;99.90;;;;;;5026115;28;20033;-64
2022/10/28 00:46:47;;;;;;;10.90;5.78;;;16.60;99.90;;;;;;5015884;28;20098;-64
2022/10/28 00:49:26;;;;;;;11.02;6.78;;;16.60;99.90;;;;;;5014885;28;20038;-64
2022/10/28 00:51:56;;;;;;;14.17;6.70;;;16.50;99.90;;;;;;5016692;28;20026;-64
2022/10/28 00:54:22;;;;;;;8.82;5.43;;;16.50;99.90;;;;;;5018137;28;20080;-64
2022/10/28 00:56:52;;;;;;;10.90;6.47;;;16.50;99.90;;;;;;5018089;28;20018;-64
2022/10/28 00:59:40;;;;;;;12.88;6.93;;;16.50;99.90;;;;;;5029338;28;20025;-64
2022/10/28 01:02:05;;;;;;;12.77;6.55;;;16.50;99.90;;;;;;5016670;28;20493;-65
2022/10/28 01:04:31;;;;;;;10.25;6.65;;;16.50;99.90;;;;;;5014463;28;20037;-64
2022/10/28 01:06:58;;;;;;;12.68;6.63;;;16.50;99.90;;;;;;5017649;28;20025;-65
2022/10/28 01:09:24;;;;;;;15.25;6.60;;;16.50;99.90;;;;;;5016392;28;20057;-64
2022/10/28 01:12:28;;;;;;;11.20;6.93;;;16.50;99.90;;;;;;5014531;28;20072;-64
2022/10/28 01:15:06;;;;;;;14.00;6.15;;;16.50;99.90;;;;;;5012946;28;20041;-64
2022/10/28 01:17:40;;;;;;;10.93;6.68;;;16.50;99.90;;;;;;5013044;28;20040;-64
2022/10/28 01:21:01;;;;;;;15.70;7.30;;;16.50;99.90;;;;;;5015682;28;20056;-64
2022/10/28 01:23:32;;;;;;;9.85;6.07;;;16.50;99.90;;;;;;5013346;28;20033;-64
2022/10/28 01:26:04;;;;;;;12.85;6.63;;;16.40;99.90;;;;;;5015247;28;20013;-64
2022/10/28 01:28:48;;;;;;;12.38;6.68;;;16.50;99.90;;;;;;5015776;28;20026;-64
2022/10/28 01:31:26;;;;;;;11.25;6.88;;;16.50;99.90;;;;;;5017472;28;20483;-65
2022/10/28 01:34:15;;;;;;;12.60;7.15;;;16.40;99.90;;;;;;5015570;28;20022;-64
2022/10/28 01:36:48;;;;;;;9.90;7.20;;;16.40;99.90;;;;;;5011751;28;20072;-64
2022/10/28 01:39:32;;;;;;;14.48;7.05;;;16.40;99.90;;;;;;5015987;28;20025;-65
2022/10/28 01:42:19;;;;;;;10.27;6.93;;;16.40;99.90;;;;;;5017722;28;20028;-64
2022/10/28 01:45:13;;;;;;;13.35;7.15;;;16.40;99.90;;;;;;5018685;28;20056;-64
2022/10/28 01:48:00;;;;;;;12.32;6.63;;;16.40;99.90;;;;;;5011164;28;20030;-64
2022/10/28 01:50:47;;;;;;;11.02;6.85;;;16.40;99.90;;;;;;5025354;28;20551;-64
2022/10/28 01:53:17;;;;;;;10.98;6.03;;;16.40;99.90;;;;;;5036812;28;20061;-64
2022/10/28 01:55:48;;;;;;;9.23;5.28;;;16.30;99.90;;;;;;5011115;28;20056;-64
2022/10/28 01:58:17;;;;;;;12.88;6.68;;;16.30;99.90;;;;;;5035876;28;20056;-64
2022/10/28 02:00:44;;;;;;;;;;;16.30;99.90;;;;;;5015031;28;20030;-64
2022/10/28 02:03:09;;;;;;;14.30;6.57;;;16.20;99.90;;;;;;5012494;28;19971;-64
2022/10/28 02:05:46;;;;;;;12.60;6.55;;;16.10;99.90;;;;;;5013448;28;20450;-64
2022/10/28 02:08:38;;;;;;;12.00;8.05;;;16.20;99.90;;;;;;5013374;28;20064;-64
2022/10/28 02:11:10;;;;;;;12.57;7.43;;;16.20;99.90;;;;;;5013386;28;20061;-65
2022/10/28 02:13:45;;;;;;;11.50;6.88;;;16.10;99.90;;;;;;5013276;28;20030;-64
2022/10/28 02:16:21;;;;;;;16.33;7.70;;;16.10;99.90;;;;;;5015978;28;20017;-64
2022/10/28 02:19:00;;;;;;;11.95;7.60;;;16.10;99.90;;;;;;5013486;28;20144;-64
2022/10/28 02:21:59;;;;;;;13.73;7.88;;;16.10;99.90;;;;;;5041171;28;20103;-64
2022/10/28 02:24:40;;;;;;;15.15;8.32;;;16.00;99.90;;;;;;5016829;28;20065;-64
2022/10/28 02:27:28;;;;;;;18.17;8.48;;;16.00;99.90;;;;;;5015183;28;20584;-64
2022/10/28 02:30:01;;;;;;;12.63;7.97;;;16.00;99.90;;;;;;5013076;28;20032;-64
2022/10/28 02:32:29;;;;;;;11.95;7.35;;;16.00;99.90;;;;;;5012116;28;20390;-64
2022/10/28 02:34:57;;;;;;;11.57;7.05;;;16.00;99.90;;;;;;5017618;28;20061;-64
2022/10/28 02:37:29;;;;;;;17.52;8.90;;;15.90;99.90;;;;;;5015835;28;20533;-64
2022/10/28 02:39:59;;;;;;;14.20;7.90;;;15.90;99.90;;;;;;5030145;28;20083;-64
2022/10/28 02:42:29;;;;;;;10.43;7.82;;;15.90;99.90;;;;;;5013949;28;20451;-64
2022/10/28 02:45:05;;;;;;;16.92;7.75;;;15.90;99.90;;;;;;5014541;28;20050;-64
2022/10/28 02:47:35;;;;;;;12.25;7.32;;;15.90;99.90;;;;;;5009793;28;20096;-64
2022/10/28 02:50:03;;;;;;;;;;;15.90;99.90;;;;;;5014069;28;20076;-64
2022/10/28 02:52:31;;;;;;;12.48;8.07;;;15.90;99.90;;;;;;5012814;28;20011;-64
2022/10/28 02:54:59;;;;;;;14.63;7.47;;;15.80;99.90;;;;;;5011504;28;20022;-64
2022/10/28 02:57:29;;;;;;;12.27;7.45;;;15.90;99.90;;;;;;5024363;28;20030;-64
2022/10/28 02:59:59;;;;;;;9.00;6.60;;;15.90;99.90;;;;;;5014385;28;20838;-64
2022/10/28 03:02:26;;;;;;;13.55;7.30;;;15.90;99.90;;;;;;5012324;28;20113;-64
2022/10/28 03:04:52;;;;;;;13.40;7.47;;;15.90;99.90;;;;;;5017210;28;20041;-64
2022/10/28 03:07:18;;;;;;;13.20;7.53;;;15.90;99.90;;;;;;5012369;28;20022;-65
2022/10/28 03:09:43;;;;;;;16.05;8.15;;;15.80;99.90;;;;;;5011612;28;20022;-64
2022/10/28 03:12:09;;;;;;;11.73;7.25;;;15.90;99.90;;;;;;5012056;28;20033;-64
2022/10/28 03:14:34;;;;;;;16.15;7.80;;;15.80;99.90;;;;;;5011537;28;20030;-64
2022/10/28 03:17:00;;;;;;;14.88;7.20;;;15.80;99.90;;;;;;5011140;28;20088;-64
2022/10/28 03:19:25;;;;;;;13.13;7.50;;;15.80;99.90;;;;;;5017712;28;20026;-64
2022/10/28 03:21:51;;;;;;;13.60;7.20;;;15.80;99.90;;;;;;5014548;28;20029;-64
2022/10/28 03:24:16;;;;;;;10.60;6.20;;;15.80;99.90;;;;;;5012962;28;20116;-64
2022/10/28 03:26:42;;;;;;;11.77;7.53;;;15.80;99.90;;;;;;5015553;28;20033;-64
2022/10/28 03:29:07;;;;;;;14.00;7.43;;;15.80;99.90;;;;;;5011831;28;20030;-64
2022/10/28 03:31:33;;;;;;;13.70;6.97;;;15.70;99.90;;;;;;5010697;28;20052;-64
2022/10/28 03:33:59;;;;;;;15.13;8.43;;;15.70;99.90;;;;;;5015910;28;20080;-64
2022/10/28 03:36:24;;;;;;;13.48;8.38;;;15.70;99.90;;;;;;5023863;28;20026;-64
2022/10/28 03:38:50;;;;;;;14.95;7.43;;;15.70;99.90;;;;;;5011889;28;20022;-64
2022/10/28 03:41:15;;;;;;;13.48;7.15;;;15.80;99.90;;;;;;5013416;28;20022;-64
2022/10/28 03:43:41;;;;;;;10.30;6.10;;;15.70;99.90;;;;;;5010639;28;20026;-64
2022/10/28 03:46:06;;;;;;;12.60;6.90;;;15.70;99.90;;;;;;5010757;28;20069;-64
2022/10/28 03:48:32;;;;;;;12.57;6.82;;;15.80;99.90;;;;;;5014757;28;20037;-64
2022/10/28 03:50:57;;;;;;;11.65;6.82;;;15.80;99.90;;;;;;5009130;28;20084;-64
2022/10/28 03:53:23;;;;;;;13.25;6.30;;;15.80;99.90;;;;;;5011419;28;20037;-64
2022/10/28 03:55:58;;;;;;;11.63;6.10;;;15.80;99.90;;;;;;5018596;28;20050;-64
2022/10/28 03:58:24;;;;;;;13.38;7.35;;;15.80;99.90;;;;;;5036951;28;20481;-64
2022/10/28 04:00:51;;;;;;;14.00;6.72;;;15.80;99.90;;;;;;5010818;28;20379;-64
2022/10/28 04:03:18;;;;;;;16.00;6.47;;;15.80;99.90;;;;;;5020870;28;20096;-64
2022/10/28 04:05:44;;;;;;;15.65;6.82;;;15.80;99.90;;;;;;5014826;28;20040;-64
2022/10/28 04:08:10;;;;;;;15.80;6.68;;;15.90;99.90;;;;;;5015538;28;20133;-64
2022/10/28 04:10:36;;;;;;;10.40;6.75;;;15.90;99.90;;;;;;5013487;28;20072;-65
2022/10/28 04:13:03;;;;;;;13.60;6.85;;;15.90;99.90;;;;;;5015812;28;20026;-65
2022/10/28 04:15:29;;;;;;;14.10;6.60;;;15.90;99.90;;;;;;5014738;28;20099;-64
2022/10/28 04:17:54;;;;;;;11.13;6.28;;;15.90;99.90;;;;;;5017983;28;20022;-64
2022/10/28 04:20:20;;;;;;;15.13;7.25;;;15.80;99.90;;;;;;5018869;28;20013;-64
2022/10/28 04:22:46;;;;;;;14.10;6.65;;;15.80;99.90;;;;;;5013083;28;20092;-64
2022/10/28 04:25:12;;;;;;;13.93;6.97;;;15.80;99.90;;;;;;5010480;28;20029;-64
2022/10/28 04:27:37;;;;;;;13.68;7.57;;;15.80;99.90;;;;;;5014055;28;20425;-64
2022/10/28 04:30:04;;;;;;;12.02;6.20;;;15.80;99.90;;;;;;5017838;28;20486;-64
2022/10/28 04:32:29;;;;;;;15.95;7.20;;;15.80;99.90;;;;;;5022816;28;20501;-64
2022/10/28 04:34:55;;;;;;;13.27;6.30;;;15.70;99.90;;;;;;5039530;28;20512;-64
2022/10/28 04:37:21;;;;;;;11.40;6.45;;;15.70;99.90;;;;;;5014113;28;20456;-64
2022/10/28 04:39:46;;;;;;;13.35;6.80;;;15.70;99.90;;;;;;5012490;28;20028;-64
2022/10/28 04:42:12;;;;;;;12.90;6.30;;;15.70;99.90;;;;;;5012792;28;20101;-64
2022/10/28 04:44:37;;;;;;;11.13;6.85;;;15.70;99.90;;;;;;5015378;28;20453;-64
2022/10/28 04:47:03;;;;;;;15.73;7.22;;;15.70;99.90;;;;;;5017130;28;20033;-64
2022/10/28 04:49:28;;;;;;;12.10;6.85;;;15.60;99.90;;;;;;5012112;28;20069;-64
2022/10/28 04:51:54;;;;;;;11.70;6.28;;;15.60;99.90;;;;;;5013508;28;20100;-64
2022/10/28 04:54:19;;;;;;;10.68;6.22;;;15.60;99.90;;;;;;5016142;28;20049;-64
2022/10/28 04:56:45;;;;;;;13.82;6.90;;;15.50;99.90;;;;;;5016564;28;20469;-64
2022/10/28 04:59:10;;;;;;;11.95;6.75;;;15.50;99.90;;;;;;5014283;28;20140;-64
2022/10/28 05:01:36;;;;;;;16.27;7.18;;;15.50;99.90;;;;;;5019019;28;20030;-64
2022/10/28 05:04:02;;;;;;;13.75;6.88;;;15.50;99.90;;;;;;5014180;28;20465;-64
2022/10/28 05:06:28;;;;;;;11.55;6.72;;;15.50;99.90;;;;;;5015453;28;20030;-64
2022/10/28 05:08:53;;;;;;;12.50;6.25;;;15.50;99.90;;;;;;5012032;28;20029;-64
2022/10/28 05:11:19;;;;;;;14.88;7.53;;;15.50;99.90;;;;;;5013110;28;20092;-65
2022/10/28 05:13:44;;;;;;;12.80;6.60;;;15.50;99.90;;;;;;5022377;28;20029;-64
2022/10/28 05:16:10;;;;;;;12.93;6.30;;;15.50;99.90;;;;;;5030990;28;20026;-64
2022/10/28 05:18:35;;;;;;;14.57;7.10;;;15.50;99.90;;;;;;5030594;28;20075;-64
2022/10/28 05:21:01;;;;;;;11.02;5.88;;;15.50;99.90;;;;;;5029196;28;20555;-64
2022/10/28 05:23:27;;;;;;;16.80;7.68;;;15.50;99.90;;;;;;5030950;28;20022;-64
2022/10/28 05:25:52;;;;;;;13.25;7.20;;;15.50;99.90;;;;;;5024118;28;20421;-64
2022/10/28 05:28:18;;;;;;;9.60;6.30;;;15.50;99.90;;;;;;5031071;28;20474;-64
2022/10/28 05:30:46;;;;;;;11.60;6.13;;;15.50;99.90;;;;;;5020695;28;20520;-64
2022/10/28 05:33:11;;;;;;;12.18;6.32;;;15.50;99.90;;;;;;5031850;28;20099;-64
2022/10/28 05:35:37;;;;;;;15.88;7.22;;;15.40;99.90;;;;;;5030461;28;20022;-64
2022/10/28 05:38:04;;;;;;;11.73;5.75;;;15.40;99.90;;;;;;5030073;28;20116;-64
2022/10/28 05:40:31;;;;;;;11.98;6.38;;;15.40;99.90;;;;;;5017517;28;20030;-64
2022/10/28 05:42:57;;;;;;;11.25;6.03;;;15.30;99.90;;;;;;5030778;28;20381;-64
2022/10/28 05:45:23;;;;;;;18.17;7.45;;;15.30;99.90;;;;;;5030473;28;20050;-64
2022/10/28 05:47:48;;;;;;;13.93;5.90;;;15.30;99.90;;;;;;5024063;28;20040;-64
2022/10/28 05:50:16;;;;;;;14.07;6.65;;;15.30;99.90;;;;;;5035560;28;20030;-64
2022/10/28 05:52:50;;;;;;;13.65;6.22;;;15.20;99.90;;;;;;5033567;28;20060;-64
2022/10/28 05:55:18;;;;;;;16.15;7.28;;;15.20;99.90;;;;;;5033415;28;20025;-64
2022/10/28 05:57:47;;;;;;;10.02;5.93;;;15.20;99.90;;;;;;5033776;28;20028;-64
2022/10/28 06:00:14;;;;;;;11.88;6.32;;;15.10;99.90;;;;;;5031862;28;20092;-64
2022/10/28 06:02:41;;;;;;;10.77;6.78;;;15.20;99.90;;;;;;5033552;28;20033;-64
2022/10/28 06:05:08;;;;;;;15.43;6.38;;;15.20;99.90;;;;;;5033182;28;20026;-64
2022/10/28 06:07:36;;;;;;;14.13;6.70;;;15.10;99.90;;;;;;5032168;28;20017;-64
2022/10/28 06:10:03;;;;;;;12.60;7.20;;;15.10;99.90;;;;;;5031720;28;20064;-64
2022/10/28 06:12:28;;;;;;;15.18;6.60;;;15.10;99.90;;;;;;5032159;28;20405;-64
2022/10/28 06:14:54;;;;;;;12.82;6.60;;;15.10;99.90;;;;;;5032176;28;20109;-64
2022/10/28 06:17:25;;;;;;;17.20;7.63;;;15.10;99.90;;;;;;5032672;28;20112;-64
2022/10/28 06:19:51;;;;;;;12.95;7.20;;;15.10;99.90;;;;;;5030141;28;20100;-64
2022/10/28 06:22:16;;;;;;;12.00;7.28;;;15.10;99.90;;;;;;5032913;28;20469;-64
2022/10/28 06:24:42;;;;;;;13.18;6.30;;;15.00;99.90;;;;;;5031861;28;20037;-64
2022/10/28 06:27:08;;;;;;;10.15;6.20;;;15.00;99.90;;;;;;5031437;28;20025;-64
2022/10/28 06:29:34;;;;;;;12.00;5.75;;;15.00;99.90;;;;;;5031293;28;20163;-64
2022/10/28 06:31:59;;;;;;;15.13;7.25;;;15.00;99.90;;;;;;5026288;28;20030;-64
2022/10/28 06:34:25;;;;;;;13.30;6.25;;;15.00;99.90;;;;;;5029700;28;20083;-64
2022/10/28 06:36:51;;;;;;;12.13;7.15;;;15.00;99.90;;;;;;5031558;28;20104;-64
2022/10/28 06:39:16;;;;;;;14.55;6.43;;;15.00;99.90;;;;;;5031580;28;20030;-64
2022/10/28 06:41:42;;;;;;;12.38;6.63;;;15.00;99.90;;;;;;5030086;28;20512;-64
2022/10/28 06:44:08;;;;;;;15.63;7.05;;;15.00;99.90;;;;;;5019736;28;20468;-64
2022/10/28 06:46:34;;;;;;;13.40;7.15;;;15.00;99.90;;;;;;5018433;28;20062;-64
2022/10/28 06:49:02;;;;;;;14.82;7.88;;;15.00;99.90;;;;;;5032426;28;20067;-64
2022/10/28 06:51:28;;;;;;;14.40;7.28;;;15.00;99.90;;;;;;5032161;28;20045;-64
2022/10/28 06:53:54;;;;;;;12.30;7.40;;;15.00;99.90;;;;;;5032685;28;20029;-64
2022/10/28 06:56:20;;;;;;;12.52;7.10;;;15.00;99.90;;;;;;5032282;28;20509;-64
2022/10/28 06:58:50;;;;;;;15.07;6.88;;;15.10;99.90;;;;;;5030567;28;20032;-64
2022/10/28 07:01:15;;;;;;;14.43;7.20;;;15.10;99.90;;;;;;5030043;28;20465;-64
2022/10/28 07:03:41;;;;;;;12.73;6.90;;;15.10;99.90;;;;;;5031172;28;20035;-64
2022/10/28 07:06:06;;;;;;;22.05;8.05;;;15.10;99.90;;;;;;5024272;28;20447;-64
2022/10/28 07:08:32;;;;;;;16.58;7.68;;;15.10;99.90;;;;;;5020483;28;20048;-64
2022/10/28 07:10:59;;;;;;;13.50;6.93;;;15.10;99.90;;;;;;5023505;28;20281;-64
2022/10/28 07:13:25;;;;;;;16.65;7.47;;;15.20;99.90;;;;;;5028512;28;20088;-64
2022/10/28 07:15:52;;;;;;;14.48;8.45;;;15.20;99.90;;;;;;5019134;28;20022;-64
2022/10/28 07:18:18;;;;;;;11.30;6.65;;;15.20;99.90;;;;;;5029682;28;20470;-65
2022/10/28 07:20:48;;;;;;;14.00;7.65;;;15.30;99.90;;;;;;5032005;28;20025;-65
2022/10/28 07:23:14;;;;;;;13.00;7.43;;;15.30;99.90;;;;;;5031313;28;20079;-65
2022/10/28 07:25:40;;;;;;;13.70;7.50;;;15.30;99.90;;;;;;5030394;28;20041;-64
2022/10/28 07:28:05;;;;;;;12.60;6.75;;;15.30;99.90;;;;;;5029528;28;20036;-64
2022/10/28 07:30:32;;;;;;;16.63;7.47;;;15.30;99.90;;;;;;5032511;28;20025;-64
2022/10/28 07:32:59;;;;;;;13.52;6.45;;;15.40;99.90;;;;;;5027094;28;20105;-64
2022/10/28 07:35:29;;;;;;;12.88;7.13;;;15.40;99.90;;;;;;5026963;28;20029;-64
2022/10/28 07:37:55;;;;;;;16.60;8.27;;;15.40;99.90;;;;;;5031461;28;20013;-64
2022/10/28 07:40:23;;;;;;;16.08;7.68;;;15.50;99.90;;;;;;5024785;28;20021;-64
2022/10/28 07:42:48;;;;;;;13.57;7.85;;;15.50;99.90;;;;;;5035764;28;20097;-64
2022/10/28 07:45:15;;;;;;;16.73;8.10;;;15.60;99.90;;;;;;5028761;28;20054;-64
2022/10/28 07:47:40;;;;;;;17.02;7.70;;;15.60;99.90;;;;;;5016248;28;20037;-64
2022/10/28 07:50:07;;;;;;;14.68;7.95;;;15.60;99.90;;;;;;5031216;28;20033;-64
2022/10/28 07:52:34;;;;;;;14.50;8.05;;;15.70;99.90;;;;;;5034464;28;20429;-64
2022/10/28 07:54:59;;;;;;;17.42;7.10;;;15.70;99.90;;;;;;5027694;28;20025;-64
2022/10/28 07:57:25;;;;;;;17.15;7.82;;;15.70;99.90;;;;;;5027087;28;20047;-65
2022/10/28 07:59:51;;;;;;;16.50;7.35;;;15.80;99.90;;;;;;5032122;28;20032;-64
2022/10/28 08:02:19;;;;;;;12.82;7.25;;;15.90;99.90;;;;;;5032785;28;20032;-64
2022/10/28 08:04:44;;;;;;;15.40;7.47;;;15.90;99.90;;;;;;5032132;28;20025;-64
2022/10/28 08:07:11;;;;;;;12.30;7.07;;;16.00;99.90;;;;;;5030708;28;20029;-64
2022/10/28 08:09:36;;;;;;;22.52;8.38;;;16.00;99.90;;;;;;5030649;28;20413;-65
2022/10/28 08:12:02;;;;;;;16.08;8.85;;;16.10;99.90;;;;;;5025040;28;20542;-65
2022/10/28 08:14:27;;;;;;;16.27;9.32;;;16.20;99.90;;;;;;5031654;28;20482;-64
2022/10/28 08:16:53;;;;;;;12.95;7.35;;;16.30;99.90;;;;;;5034115;28;20370;-64
2022/10/28 08:19:18;;;;;;;13.68;7.78;;;16.50;99.90;;;;;;5028727;28;20032;-64
2022/10/28 08:21:45;;;;;;;12.30;7.30;;;16.50;99.90;;;;;;5035313;28;20100;-64
2022/10/28 08:24:10;;;;;;;19.23;7.28;;;16.70;99.90;;;;;;5035537;28;20068;-64
2022/10/28 08:26:36;;;;;;;11.82;7.78;;;16.80;99.90;;;;;;5034578;28;20505;-64
2022/10/28 08:29:01;;;;;;;15.38;7.47;;;16.90;99.90;;;;;;5033931;28;20449;-64
2022/10/28 08:31:27;;;;;;;17.80;7.88;;;17.00;99.90;;;;;;5033384;28;20045;-65
2022/10/28 08:33:52;;;;;;;13.05;7.63;;;17.00;99.90;;;;;;5034904;28;20025;-64
2022/10/28 08:36:18;;;;;;;17.13;9.07;;;17.10;99.90;;;;;;5026207;28;20080;-65
2022/10/28 08:38:45;;;;;;;26.13;9.43;;;17.20;99.90;;;;;;5034928;28;20014;-65
2022/10/28 08:41:32;;;;;;;16.48;7.95;;;17.30;99.90;;;;;;5026537;28;20029;-65
2022/10/28 08:44:03;;;;;;;15.05;8.32;;;17.30;99.90;;;;;;5035381;28;20456;-64
2022/10/28 08:46:53;;;;;;;20.65;9.07;;;17.40;99.90;;;;;;5018056;28;20022;-65
2022/10/28 08:49:22;;;;;;;17.08;8.80;;;17.50;99.90;;;;;;5024622;28;20024;-65
2022/10/28 08:51:51;;;;;;;13.98;7.93;;;17.60;99.90;;;;;;5034667;28;20078;-65
2022/10/28 08:54:26;;;;;;;12.23;7.22;;;17.70;99.90;;;;;;5035056;28;20028;-65
2022/10/28 08:56:53;;;;;;;14.57;7.75;;;17.70;99.90;;;;;;5034273;28;20032;-65
2022/10/28 08:59:40;;;;;;;16.58;7.82;;;17.80;99.90;;;;;;5034467;28;20018;-65
2022/10/28 09:02:27;;;;;;;13.10;6.60;;;18.00;99.90;;;;;;5023532;28;20067;-65
2022/10/28 09:05:05;;;;;;;14.32;6.75;;;18.20;99.90;;;;;;5015921;28;20538;-65
2022/10/28 09:07:32;;;;;;;15.32;6.35;;;18.30;99.90;;;;;;5027907;28;20033;-65
2022/10/28 09:09:58;;;;;;;16.65;7.07;;;18.50;99.90;;;;;;5021893;28;20026;-65
2022/10/28 09:12:47;;;;;;;18.90;7.70;;;18.70;99.90;;;;;;5034046;28;20075;-65
2022/10/28 09:15:13;;;;;;;;;;;18.90;99.90;;;;;;5034890;28;20481;-65
2022/10/28 09:17:53;;;;;;;12.40;6.43;;;19.10;99.90;;;;;;5033762;28;19905;-65
2022/10/28 09:20:55;;;;;;;14.98;5.93;;;19.20;99.90;;;;;;5033801;28;20482;-65
2022/10/28 09:23:34;;;;;;;12.63;5.72;;;19.50;99.90;;;;;;5034172;28;20029;-65
2022/10/28 09:26:23;;;;;;;11.63;5.65;;;19.60;99.90;;;;;;5034377;28;20577;-65
2022/10/28 09:29:18;;;;;;;14.02;5.85;;;19.70;99.90;;;;;;5021797;28;20056;-65
2022/10/28 09:32:09;;;;;;;13.70;6.30;;;19.80;99.90;;;;;;5033956;28;20031;-65
2022/10/28 09:34:40;;;;;;;10.68;5.05;;;19.90;99.90;;;;;;5032015;28;20024;-65
2022/10/28 09:37:12;;;;;;;12.82;5.43;;;20.00;99.90;;;;;;5023807;28;20525;-65
2022/10/28 09:39:56;;;;;;;10.93;5.47;;;20.10;99.60;;;;;;5033738;28;20103;-65
2022/10/28 09:42:47;;;;;;;13.10;6.07;;;20.10;99.40;;;;;;5021042;28;20421;-65
2022/10/28 09:45:20;;;;;;;10.32;5.70;;;20.20;98.90;;;;;;5018658;28;20100;-65
2022/10/28 09:47:55;;;;;;;10.82;5.97;;;20.20;98.90;;;;;;5014403;28;20075;-65
2022/10/28 09:50:26;;;;;;;11.32;4.82;;;20.20;98.60;;;;;;5027403;28;20022;-65
2022/10/28 09:53:28;;;;;;;12.40;5.25;;;20.20;98.30;;;;;;5025783;28;20026;-65
2022/10/28 09:55:54;;;;;;;13.32;5.00;;;20.30;98.50;;;;;;5024191;28;20045;-65
2022/10/28 09:58:20;;;;;;;10.88;5.32;;;20.30;98.30;;;;;;5032735;28;20025;-65
2022/10/28 10:00:45;;;;;;;8.15;4.75;;;20.50;98.30;;;;;;5023269;28;20018;-65
2022/10/28 10:03:11;;;;;;;9.15;4.30;;;20.80;98.00;;;;;;5030753;28;20022;-65
2022/10/28 10:05:42;;;;;;;12.40;4.85;;;21.30;96.90;;;;;;5033209;28;20396;-65
2022/10/28 10:08:13;;;;;;;11.20;4.55;;;21.60;95.40;;;;;;5032887;28;20025;-65
2022/10/28 10:10:59;;;;;;;12.45;4.60;;;22.10;95.10;;;;;;5033362;28;20030;-65
2022/10/28 10:13:37;;;;;;;9.48;4.38;;;23.10;93.60;;;;;;5022689;28;20022;-65
2022/10/28 10:16:19;;;;;;;9.93;3.75;;;24.20;90.20;;;;;;5033270;28;20036;-65
2022/10/28 10:18:49;;;;;;;10.40;4.35;;;24.90;88.90;;;;;;5020422;28;20470;-65
2022/10/28 10:21:15;;;;;;;10.45;4.40;;;25.50;83.60;;;;;;5023047;28;20481;-65
2022/10/28 10:23:41;;;;;;;11.55;5.25;;;26.10;83.10;;;;;;5028433;28;20037;-65
2022/10/28 10:26:16;;;;;;;7.43;4.10;;;26.10;78.90;;;;;;5024829;28;20022;-65
2022/10/28 10:28:47;;;;;;;7.90;3.65;;;26.30;78.90;;;;;;5030496;28;20401;-65
2022/10/28 10:31:25;;;;;;;10.73;4.65;;;26.70;76.40;;;;;;5031150;28;20029;-65
2022/10/28 10:33:53;;;;;;;9.52;4.32;;;26.50;75.00;;;;;;5033242;28;20018;-65
2022/10/28 10:36:22;;;;;;;9.82;4.13;;;26.60;75.20;;;;;;5029852;28;20407;-65
2022/10/28 10:38:52;;;;;;;11.80;4.78;;;27.10;74.70;;;;;;5032121;28;20025;-65
2022/10/28 10:41:34;;;;;;;7.97;3.60;;;27.00;72.50;;;;;;5032415;28;20502;-66
2022/10/28 10:44:00;;;;;;;9.88;3.85;;;26.20;74.60;;;;;;5032523;28;20029;-65
2022/10/28 10:46:26;;;;;;;9.55;3.95;;;25.50;76.30;;;;;;5018866;28;20041;-65
2022/10/28 10:49:14;;;;;;;9.15;4.28;;;25.50;77.80;;;;;;5019833;28;20026;-65
2022/10/28 10:52:03;;;;;;;9.77;4.70;;;25.90;78.20;;;;;;5032615;28;20021;-65
2022/10/28 10:54:36;;;;;;;9.68;4.63;;;25.60;75.60;;;;;;5016363;28;20057;-65
2022/10/28 10:57:18;;;;;;;13.65;4.75;;;25.60;76.60;;;;;;5018666;28;20029;-65
2022/10/28 10:59:50;;;;;;;9.18;4.10;;;25.50;76.60;;;;;;5032210;28;20084;-65
2022/10/28 11:02:26;;;;;;;8.32;3.65;;;25.20;77.00;;;;;;5026651;28;20026;-65
2022/10/28 11:04:55;;;;;;;7.75;4.40;;;25.20;78.60;;;;;;5021043;28;20018;-65
2022/10/28 11:07:21;;;;;;;8.90;3.60;;;25.70;77.90;;;;;;5024516;28;20026;-65
2022/10/28 11:09:48;;;;;;;9.13;4.30;;;26.20;77.00;;;;;;5021940;28;20028;-65
2022/10/28 11:12:15;;;;;;;7.82;3.55;;;26.30;74.30;;;;;;5028001;28;20067;-65
2022/10/28 11:14:55;;;;;;;9.05;4.50;;;26.30;74.00;;;;;;5030224;28;20064;-65
2022/10/28 11:17:26;;;;;;;7.32;3.63;;;26.30;74.30;;;;;;5027330;28;20532;-65
2022/10/28 11:20:17;;;;;;;10.38;3.67;;;26.60;74.40;;;;;;5030103;28;20080;-65
2022/10/28 11:22:58;;;;;;;8.57;3.58;;;26.90;73.90;;;;;;5020661;28;20032;-65
2022/10/28 11:25:35;;;;;;;8.63;3.70;;;27.60;71.20;;;;;;5025311;28;20482;-66
2022/10/28 11:28:27;;;;;;;10.25;3.65;;;28.20;70.00;;;;;;5021808;28;20455;-66
2022/10/28 11:31:11;;;;;;;9.70;3.20;;;28.60;67.10;;;;;;5029026;28;20469;-66
2022/10/28 11:34:00;;;;;;;12.98;3.45;;;28.50;65.70;;;;;;5029154;28;20029;-65
2022/10/28 11:37:08;;;;;;;8.75;3.20;;;27.90;66.90;;;;;;5030221;28;20096;-66
2022/10/28 11:39:59;;;;;;;9.73;4.03;;;27.40;68.00;;;;;;5030118;28;20013;-66
2022/10/28 11:42:30;;;;;;;8.85;3.95;;;27.00;68.60;;;;;;5028857;28;20030;-65
2022/10/28 11:45:10;;;;;;;9.25;3.50;;;26.80;69.20;;;;;;5029122;28;20102;-66
2022/10/28 11:47:50;;;;;;;8.25;3.20;;;26.70;69.30;;;;;;5030335;28;20048;-66
2022/10/28 11:50:15;;;;;;;12.35;3.33;;;26.50;70.00;;;;;;5027914;28;20116;-65
2022/10/28 11:53:00;;;;;;;5.70;2.65;;;26.30;70.30;;;;;;5030370;28;20108;-66
2022/10/28 11:55:40;;;;;;;9.55;3.35;;;26.20;70.80;;;;;;5030564;28;20017;-65
2022/10/28 11:58:23;;;;;;;7.20;2.92;;;26.20;70.70;;;;;;5030799;28;20064;-65
2022/10/28 12:01:16;;;;;;;8.82;3.28;;;25.90;70.60;;;;;;5027814;28;20097;-65
2022/10/28 12:04:06;;;;;;;7.32;2.88;;;25.90;69.70;;;;;;5024013;28;20108;-65
2022/10/28 12:06:50;;;;;;;6.38;2.83;;;26.00;69.00;;;;;;5029916;28;20026;-65
2022/10/28 12:09:51;;;;;;;10.57;3.42;;;26.00;69.10;;;;;;5025279;28;20115;-65
2022/10/28 12:12:30;;;;;;;9.63;4.05;;;26.00;68.90;;;;;;5013332;28;20040;-66
2022/10/28 12:15:14;;;;;;;9.20;2.97;;;26.30;68.40;;;;;;5019662;28;20024;-66
2022/10/28 12:18:00;;;;;;;7.18;2.53;;;26.70;67.50;;;;;;5031536;28;20052;-66
2022/10/28 12:20:56;;;;;;;7.25;2.90;;;26.90;67.40;;;;;;5025294;28;20049;-66
2022/10/28 12:23:23;;;;;;;6.97;3.05;;;26.80;66.10;;;;;;5033208;28;20109;-65
2022/10/28 12:25:53;;;;;;;6.88;2.60;;;26.50;66.90;;;;;;5033362;28;20029;-65
2022/10/28 12:28:25;;;;;;;10.32;3.00;;;26.40;68.10;;;;;;5030628;28;20048;-66
2022/10/28 12:30:52;;;;;;;6.85;3.15;;;26.30;67.70;;;;;;5032913;28;20041;-66
2022/10/28 12:33:43;;;;;;;9.90;3.17;;;26.30;66.90;;;;;;5034452;28;20032;-65
2022/10/28 12:36:08;;;;;;;10.40;3.90;;;26.50;66.90;;;;;;5023878;28;20014;-65
2022/10/28 12:38:56;;;;;;;9.32;3.38;;;26.30;66.50;;;;;;5029704;28;20024;-65
2022/10/28 12:41:25;;;;;;;7.80;2.47;;;26.20;67.10;;;;;;5035128;28;20524;-65
2022/10/28 12:44:01;;;;;;;9.57;3.03;;;26.20;68.10;;;;;;5029470;28;20032;-65
2022/10/28 12:46:57;;;;;;;8.60;3.38;;;26.30;66.30;;;;;;5014976;28;20022;-65
2022/10/28 12:50:00;;;;;;;9.77;3.38;;;26.40;65.60;;;;;;5015227;28;20088;-65
2022/10/28 12:52:37;;;;;;;10.40;3.40;;;26.60;64.90;;;;;;5014761;28;20045;-66
2022/10/28 12:55:16;;;;;;;13.98;3.45;;;26.80;64.10;;;;;;5017683;28;20010;-66
2022/10/28 12:57:47;;;;;;;9.43;2.95;;;26.80;64.30;;;;;;5022010;28;20022;-66
2022/10/28 13:00:15;;;;;;;7.55;2.70;;;26.80;64.80;;;;;;5027934;28;20022;-66
2022/10/28 13:02:49;;;;;;;8.52;3.15;;;26.60;64.80;;;;;;5014625;28;20030;-65
2022/10/28 13:05:22;;;;;;;10.05;2.90;;;26.40;66.10;;;;;;5021073;28;20040;-65